createdAt,value
2018-08-18T00:02:38.022Z,16.64
2018-08-18T00:05:40.328Z,16.53
2018-08-18T00:08:42.534Z,16.46
2018-08-18T00:11:44.772Z,16.43
2018-08-18T00:14:46.984Z,16.42
2018-08-18T00:17:49.194Z,16.54
2018-08-18T00:20:51.454Z,16.71
2018-08-18T00:24:16.462Z,16.85
2018-08-18T00:27:18.681Z,16.89
2018-08-18T00:30:25.886Z,16.95
2018-08-18T00:33:28.083Z,17.03
2018-08-18T00:36:30.383Z,17.06
2018-08-18T00:39:32.740Z,17.06
2018-08-18T00:42:35.061Z,17.09
2018-08-18T00:45:37.371Z,17.07
2018-08-18T00:48:39.591Z,17.08
2018-08-18T00:51:41.893Z,17.09
2018-08-18T00:54:44.113Z,17.06
2018-08-18T00:57:46.378Z,17.06
2018-08-18T01:00:54.352Z,17.05
2018-08-18T01:03:58.512Z,17.05
2018-08-18T01:07:02.106Z,16.97
2018-08-18T01:10:04.573Z,16.90
2018-08-18T01:13:06.892Z,16.88
2018-08-18T01:16:09.089Z,16.91
2018-08-18T01:19:11.339Z,16.91
2018-08-18T01:22:13.589Z,16.84
2018-08-18T01:25:15.858Z,16.69
2018-08-18T01:28:18.124Z,16.52
2018-08-18T01:31:22.040Z,16.35
2018-08-18T01:34:24.264Z,16.26
2018-08-18T01:37:26.593Z,16.16
2018-08-18T01:40:29.050Z,16.06
2018-08-18T01:43:31.290Z,15.93
2018-08-18T01:46:33.604Z,15.76
2018-08-18T01:49:36.606Z,15.60
2018-08-18T01:52:38.913Z,15.40
2018-08-18T01:55:41.322Z,15.21
2018-08-18T01:58:43.533Z,15.14
2018-08-18T02:01:46.034Z,15.06
2018-08-18T02:04:48.679Z,15.02
2018-08-18T02:07:50.915Z,14.91
2018-08-18T02:10:53.217Z,14.79
2018-08-18T02:13:56.233Z,14.66
2018-08-18T02:17:10.802Z,14.59
2018-08-18T02:20:12.990Z,14.53
2018-08-18T02:23:15.220Z,14.51
2018-08-18T02:26:17.497Z,14.48
2018-08-18T02:29:19.685Z,14.45
2018-08-18T02:32:27.722Z,14.37
2018-08-18T02:35:30.065Z,14.32
2018-08-18T02:38:32.264Z,14.24
2018-08-18T02:41:35.026Z,14.07
2018-08-18T02:44:37.246Z,13.94
2018-08-18T02:47:39.558Z,13.85
2018-08-18T02:50:47.664Z,13.73
2018-08-18T02:53:50.012Z,13.65
2018-08-18T02:56:52.295Z,13.58
2018-08-18T02:59:56.104Z,13.52
2018-08-18T03:02:58.342Z,13.42
2018-08-18T03:06:06.235Z,13.37
2018-08-18T03:09:09.463Z,13.27
2018-08-18T03:12:11.962Z,13.15
2018-08-18T03:15:28.862Z,13.12
2018-08-18T03:18:53.453Z,13.05
2018-08-18T03:21:56.717Z,13.18
2018-08-18T03:24:58.948Z,13.24
2018-08-18T03:28:01.171Z,13.22
2018-08-18T03:31:04.173Z,13.21
2018-08-18T03:34:07.048Z,13.14
2018-08-18T03:37:24.488Z,13.04
2018-08-18T03:40:26.750Z,12.94
2018-08-18T03:43:29.090Z,12.86
2018-08-18T03:46:31.385Z,12.84
2018-08-18T03:49:33.794Z,12.79
2018-08-18T03:52:35.985Z,12.79
2018-08-18T03:55:38.285Z,12.71
2018-08-18T03:58:50.821Z,12.56
2018-08-18T04:01:54.012Z,12.56
2018-08-18T04:05:00.912Z,12.56
2018-08-18T04:08:03.124Z,12.56
2018-08-18T04:11:05.274Z,12.59
2018-08-18T04:14:08.036Z,12.61
2018-08-18T04:17:22.061Z,12.64
2018-08-18T04:20:24.374Z,12.58
2018-08-18T04:23:26.594Z,12.47
2018-08-18T04:26:29.504Z,12.51
2018-08-18T04:29:31.786Z,12.63
2018-08-18T04:32:46.059Z,12.78
2018-08-18T04:35:52.842Z,12.92
2018-08-18T04:38:55.017Z,13.07
2018-08-18T04:41:57.188Z,13.12
2018-08-18T04:44:59.455Z,13.22
2018-08-18T04:48:01.621Z,13.24
2018-08-18T04:51:03.886Z,13.33
2018-08-18T04:54:06.630Z,13.52
2018-08-18T04:57:08.877Z,13.40
2018-08-18T05:00:13.140Z,13.57
2018-08-18T05:03:15.437Z,13.96
2018-08-18T05:06:22.035Z,15.31
2018-08-18T05:09:24.468Z,16.48
2018-08-18T05:12:26.761Z,16.78
2018-08-18T05:15:29.204Z,17.93
2018-08-18T05:18:31.367Z,18.77
2018-08-18T05:21:33.577Z,19.30
2018-08-18T05:24:35.791Z,19.76
2018-08-18T05:27:38.078Z,19.84
2018-08-18T05:30:40.586Z,20.11
2018-08-18T05:33:42.776Z,19.66
2018-08-18T05:36:45.074Z,19.09
2018-08-18T05:39:47.373Z,19.72
2018-08-18T05:42:49.686Z,20.20
2018-08-18T05:45:51.919Z,20.77
2018-08-18T05:48:54.878Z,21.07
2018-08-18T05:51:57.252Z,21.87
2018-08-18T05:54:59.552Z,22.24
2018-08-18T05:58:01.798Z,22.52
2018-08-18T06:01:14.506Z,21.57
2018-08-18T06:04:18.107Z,20.88
2018-08-18T06:07:20.473Z,21.80
2018-08-18T06:10:22.816Z,22.50
2018-08-18T06:13:25.008Z,22.17
2018-08-18T06:16:27.304Z,22.48
2018-08-18T06:19:29.498Z,21.45
2018-08-18T06:22:31.719Z,21.70
2018-08-18T06:25:34.146Z,22.75
2018-08-18T06:28:36.386Z,22.22
2018-08-18T06:31:56.274Z,23.47
2018-08-18T06:34:58.500Z,22.67
2018-08-18T06:38:01.007Z,22.82
2018-08-18T06:41:03.559Z,22.71
2018-08-18T06:44:05.818Z,22.78
2018-08-18T06:47:08.010Z,22.94
2018-08-18T06:50:12.191Z,23.50
2018-08-18T06:53:14.484Z,23.02
2018-08-18T06:56:16.809Z,24.33
2018-08-18T06:59:18.964Z,22.78
2018-08-18T07:02:24.293Z,23.19
2018-08-18T07:05:26.424Z,22.30
2018-08-18T07:08:28.834Z,23.58
2018-08-18T07:11:30.949Z,23.27
2018-08-18T07:14:33.258Z,24.00
2018-08-18T07:17:35.534Z,24.46
2018-08-18T07:20:37.921Z,23.95
2018-08-18T07:23:40.148Z,24.28
2018-08-18T07:26:42.361Z,24.74
2018-08-18T07:29:48.853Z,23.39
2018-08-18T07:32:51.153Z,24.54
2018-08-18T07:35:54.677Z,23.46
2018-08-18T07:38:56.806Z,24.15
2018-08-18T07:41:58.977Z,24.04
2018-08-18T07:45:01.237Z,23.72
2018-08-18T07:48:04.283Z,24.41
2018-08-18T07:51:06.514Z,23.69
2018-08-18T07:54:08.644Z,22.49
2018-08-18T07:57:10.797Z,22.20
2018-08-18T08:00:13.051Z,22.35
2018-08-18T08:03:16.051Z,23.49
2018-08-18T08:06:18.242Z,22.50
2018-08-18T08:09:20.525Z,22.68
2018-08-18T08:12:22.721Z,22.38
2018-08-18T08:15:24.916Z,21.38
2018-08-18T08:18:27.112Z,21.60
2018-08-18T08:21:29.317Z,21.71
2018-08-18T08:24:31.524Z,21.74
2018-08-18T08:27:33.756Z,21.96
2018-08-18T08:30:35.997Z,22.09
2018-08-18T08:33:38.476Z,22.59
2018-08-18T08:36:40.659Z,21.98
2018-08-18T08:39:43.761Z,22.24
2018-08-18T08:42:46.086Z,23.08
2018-08-18T08:45:48.331Z,22.24
2018-08-18T08:48:53.019Z,22.84
2018-08-18T08:51:55.330Z,23.51
2018-08-18T08:54:57.573Z,23.88
2018-08-18T08:58:00.008Z,23.66
2018-08-18T09:01:02.260Z,23.72
2018-08-18T09:04:04.491Z,23.33
2018-08-18T09:07:08.040Z,23.57
2018-08-18T09:10:12.021Z,22.76
2018-08-18T09:13:14.216Z,22.49
2018-08-18T09:16:16.544Z,22.98
2018-08-18T09:19:20.574Z,22.96
2018-08-18T09:22:23.102Z,23.66
2018-08-18T09:25:27.672Z,23.53
2018-08-18T09:28:30.070Z,22.70
2018-08-18T09:31:32.274Z,23.29
2018-08-18T09:34:40.124Z,23.90
2018-08-18T09:37:47.116Z,23.34
2018-08-18T09:40:51.568Z,23.76
2018-08-18T09:43:53.856Z,23.70
2018-08-18T09:46:56.791Z,24.12
2018-08-18T09:49:59.114Z,24.29
2018-08-18T09:53:01.365Z,23.93
2018-08-18T09:56:03.561Z,23.69
2018-08-18T09:59:05.877Z,23.88
2018-08-18T10:02:09.676Z,24.04
2018-08-18T10:05:12.075Z,23.89
2018-08-18T10:08:14.541Z,23.94
2018-08-18T10:11:17.175Z,24.10
2018-08-18T10:14:19.456Z,23.69
2018-08-18T10:17:21.785Z,23.29
2018-08-18T10:20:24.004Z,23.77
2018-08-18T10:23:26.226Z,23.43
2018-08-18T10:26:28.623Z,24.15
2018-08-18T10:29:30.925Z,24.55
2018-08-18T10:32:37.753Z,24.29
2018-08-18T10:35:41.037Z,24.07
2018-08-18T10:38:43.356Z,23.63
2018-08-18T10:41:56.999Z,23.86
2018-08-18T10:45:03.577Z,23.92
2018-08-18T10:48:05.950Z,24.50
2018-08-18T10:51:28.236Z,25.61
2018-08-18T10:54:30.567Z,24.47
2018-08-18T10:57:45.422Z,24.11
2018-08-18T11:00:47.733Z,24.28
2018-08-18T11:03:50.450Z,24.35
2018-08-18T11:06:52.814Z,23.97
2018-08-18T11:09:55.316Z,24.07
2018-08-18T11:12:57.597Z,24.47
2018-08-18T11:15:59.970Z,24.21
2018-08-18T11:19:02.264Z,24.82
2018-08-18T11:22:15.803Z,24.53
2018-08-18T11:25:19.860Z,24.58
2018-08-18T11:28:22.714Z,24.57
2018-08-18T11:31:24.943Z,24.75
2018-08-18T11:34:27.254Z,24.96
2018-08-18T11:37:29.551Z,24.81
2018-08-18T11:40:31.934Z,24.47
2018-08-18T11:43:51.404Z,24.83
2018-08-18T11:46:53.680Z,25.42
2018-08-18T11:49:55.969Z,25.85
2018-08-18T11:52:58.250Z,25.58
2018-08-18T11:56:00.467Z,25.28
2018-08-18T11:59:11.787Z,24.72
2018-08-18T12:02:14.100Z,24.76
2018-08-18T12:05:16.285Z,25.28
2018-08-18T12:08:19.415Z,25.26
2018-08-18T12:11:21.692Z,24.94
2018-08-18T12:14:23.999Z,25.23
2018-08-18T12:17:26.277Z,25.95
2018-08-18T12:20:28.684Z,25.86
2018-08-18T12:23:31.381Z,25.65
2018-08-18T12:26:33.741Z,25.58
2018-08-18T12:29:36.009Z,25.62
2018-08-18T12:32:38.175Z,25.76
2018-08-18T12:35:41.119Z,25.92
2018-08-18T12:38:45.924Z,25.98
2018-08-18T12:41:48.229Z,26.12
2018-08-18T12:44:50.539Z,25.95
2018-08-18T12:48:09.501Z,26.04
2018-08-18T12:51:12.904Z,26.26
2018-08-18T12:54:15.219Z,25.90
2018-08-18T12:57:29.712Z,26.23
2018-08-18T13:00:31.947Z,26.38
2018-08-18T13:03:34.118Z,26.21
2018-08-18T13:06:40.761Z,26.28
2018-08-18T13:09:43.098Z,25.81
2018-08-18T13:12:45.388Z,25.72
2018-08-18T13:15:49.469Z,25.92
2018-08-18T13:18:51.654Z,25.95
2018-08-18T13:21:54.960Z,25.96
2018-08-18T13:24:58.147Z,26.10
2018-08-18T13:28:02.572Z,26.58
2018-08-18T13:31:04.872Z,26.41
2018-08-18T13:34:08.141Z,26.32
2018-08-18T13:37:10.391Z,26.18
2018-08-18T13:40:13.078Z,26.20
2018-08-18T13:43:15.315Z,26.39
2018-08-18T13:46:19.407Z,26.85
2018-08-18T13:49:24.060Z,27.37
2018-08-18T13:52:29.008Z,27.61
2018-08-18T13:55:36.545Z,27.21
2018-08-18T13:58:38.888Z,27.24
2018-08-18T14:01:42.417Z,28.05
2018-08-18T14:04:44.809Z,28.14
2018-08-18T14:07:53.703Z,27.48
2018-08-18T14:10:55.996Z,26.91
2018-08-18T14:14:00.492Z,27.41
2018-08-18T14:17:02.799Z,27.55
2018-08-18T14:20:05.214Z,27.28
2018-08-18T14:23:08.016Z,27.66
2018-08-18T14:26:10.387Z,27.95
2018-08-18T14:29:13.024Z,28.05
2018-08-18T14:32:23.787Z,28.03
2018-08-18T14:35:26.060Z,27.83
2018-08-18T14:38:28.257Z,27.84
2018-08-18T14:41:38.152Z,28.41
2018-08-18T14:44:40.387Z,28.63
2018-08-18T14:47:42.773Z,28.52
2018-08-18T14:50:45.069Z,28.41
2018-08-18T14:53:47.444Z,27.85
2018-08-18T14:56:49.740Z,27.89
2018-08-18T14:59:52.181Z,28.22
2018-08-18T15:02:54.516Z,28.32
2018-08-18T15:05:56.809Z,28.53
2018-08-18T15:08:59.106Z,28.56
2018-08-18T15:12:02.102Z,28.66
2018-08-18T15:15:04.509Z,28.78
2018-08-18T15:18:09.685Z,29.26
2018-08-18T15:21:12.002Z,28.78
2018-08-18T15:24:14.296Z,28.83
2018-08-18T15:27:16.689Z,28.46
2018-08-18T15:30:19.282Z,27.82
2018-08-18T15:33:22.943Z,28.25
2018-08-18T15:36:31.889Z,28.62
2018-08-18T15:39:34.084Z,28.53
2018-08-18T15:42:36.465Z,28.62
2018-08-18T15:45:57.074Z,28.32
2018-08-18T15:48:59.380Z,28.31
2018-08-18T15:52:01.645Z,28.52
2018-08-18T15:55:04.618Z,28.44
2018-08-18T15:58:06.932Z,28.89
2018-08-18T16:01:09.145Z,29.35
2018-08-18T16:04:11.498Z,29.47
2018-08-18T16:07:13.723Z,28.62
2018-08-18T16:10:16.004Z,28.24
2018-08-18T16:13:18.237Z,28.59
2018-08-18T16:16:20.603Z,29.16
2018-08-18T16:19:23.080Z,29.49
2018-08-18T16:22:25.325Z,29.24
2018-08-18T16:25:35.380Z,29.02
2018-08-18T16:28:38.091Z,28.91
2018-08-18T16:31:40.277Z,28.75
2018-08-18T16:34:44.223Z,28.53
2018-08-18T16:37:46.564Z,29.01
2018-08-18T16:40:48.781Z,28.51
2018-08-18T16:43:51.093Z,28.78
2018-08-18T16:46:53.451Z,29.10
2018-08-18T16:49:55.740Z,28.68
2018-08-18T16:52:59.392Z,28.82
2018-08-18T16:56:01.682Z,28.99
2018-08-18T16:59:03.948Z,28.98
2018-08-18T17:02:13.445Z,28.85
2018-08-18T17:05:15.706Z,28.93
2018-08-18T17:08:17.956Z,28.60
2018-08-18T17:11:21.233Z,28.89
2018-08-18T17:14:23.718Z,28.87
2018-08-18T17:17:26.278Z,28.76
2018-08-18T17:20:28.640Z,29.34
2018-08-18T17:23:32.134Z,28.89
2018-08-18T17:26:34.353Z,28.97
2018-08-18T17:29:38.295Z,29.20
2018-08-18T17:32:40.423Z,28.64
2018-08-18T17:35:42.723Z,28.59
2018-08-18T17:38:45.138Z,28.29
2018-08-18T17:41:47.397Z,28.34
2018-08-18T17:44:49.699Z,27.99
2018-08-18T17:47:52.893Z,27.33
2018-08-18T17:50:55.485Z,27.25
2018-08-18T17:53:57.654Z,26.93
2018-08-18T17:57:00.021Z,26.13
2018-08-18T18:00:07.944Z,25.60
2018-08-18T18:03:10.291Z,25.42
2018-08-18T18:06:12.511Z,25.62
2018-08-18T18:09:14.720Z,25.53
2018-08-18T18:12:25.608Z,25.26
2018-08-18T18:15:30.592Z,24.93
2018-08-18T18:18:38.489Z,24.51
2018-08-18T18:21:41.616Z,24.09
2018-08-18T18:24:43.865Z,23.58
2018-08-18T18:27:46.291Z,23.06
2018-08-18T18:30:51.229Z,22.58
2018-08-18T18:34:08.596Z,22.12
2018-08-18T18:37:10.979Z,21.73
2018-08-18T18:40:13.309Z,21.37
2018-08-18T18:43:15.518Z,21.03
2018-08-18T18:46:17.765Z,20.73
2018-08-18T18:49:30.126Z,20.48
2018-08-18T18:52:32.352Z,20.21
2018-08-18T18:55:40.631Z,19.98
2018-08-18T18:58:42.983Z,19.75
2018-08-18T19:01:45.342Z,19.54
2018-08-18T19:04:47.556Z,19.38
2018-08-18T19:08:04.915Z,19.23
2018-08-18T19:11:07.308Z,18.98
2018-08-18T19:14:09.649Z,18.67
2018-08-18T19:17:12.007Z,18.27
2018-08-18T19:20:19.284Z,17.86
2018-08-18T19:23:21.493Z,17.62
2018-08-18T19:26:23.803Z,17.62
2018-08-18T19:29:27.043Z,17.69
2018-08-18T19:32:29.451Z,17.62
2018-08-18T19:35:36.446Z,17.55
2018-08-18T19:38:38.690Z,17.22
2018-08-18T19:41:40.932Z,17.13
2018-08-18T19:44:44.591Z,17.05
2018-08-18T19:47:46.910Z,17.03
2018-08-18T19:50:55.835Z,17.01
2018-08-18T19:53:58.176Z,16.98
2018-08-18T19:57:00.373Z,16.81
2018-08-18T20:00:26.348Z,16.73
2018-08-18T20:03:28.570Z,16.74
2018-08-18T20:06:30.837Z,16.81
2018-08-18T20:09:33.153Z,16.75
2018-08-18T20:12:35.470Z,16.72
2018-08-18T20:15:37.866Z,16.66
2018-08-18T20:18:40.266Z,16.52
2018-08-18T20:21:42.519Z,16.51
2018-08-18T20:24:44.778Z,16.43
2018-08-18T20:27:47.062Z,16.32
2018-08-18T20:30:49.483Z,16.10
2018-08-18T20:33:51.766Z,15.90
2018-08-18T20:36:54.110Z,15.91
2018-08-18T20:39:56.449Z,16.03
2018-08-18T20:42:58.754Z,16.07
2018-08-18T20:46:01.178Z,16.05
2018-08-18T20:49:03.550Z,15.99
2018-08-18T20:52:06.821Z,15.93
2018-08-18T20:55:09.533Z,15.89
2018-08-18T20:58:12.119Z,15.89
2018-08-18T21:01:14.336Z,15.93
2018-08-18T21:04:17.138Z,16.02
2018-08-18T21:07:19.707Z,16.06
2018-08-18T21:10:21.974Z,16.14
2018-08-18T21:13:24.674Z,16.06
2018-08-18T21:16:27.006Z,15.99
2018-08-18T21:19:29.256Z,15.91
2018-08-18T21:22:32.091Z,15.82
2018-08-18T21:25:48.240Z,15.77
2018-08-18T21:28:52.579Z,15.70
2018-08-18T21:31:54.906Z,15.67
2018-08-18T21:34:57.140Z,15.78
2018-08-18T21:37:59.429Z,15.84
2018-08-18T21:41:01.712Z,15.89
2018-08-18T21:44:04.753Z,15.87
2018-08-18T21:47:07.126Z,15.89
2018-08-18T21:50:09.433Z,15.88
2018-08-18T21:53:13.231Z,15.85
2018-08-18T21:56:15.576Z,15.75
2018-08-18T21:59:17.758Z,15.65
2018-08-18T22:02:32.327Z,15.60
2018-08-18T22:05:34.496Z,15.55
2018-08-18T22:08:36.940Z,15.50
2018-08-18T22:11:39.171Z,15.48
2018-08-18T22:14:41.440Z,15.44
2018-08-18T22:17:43.997Z,15.46
2018-08-18T22:20:46.197Z,15.51
2018-08-18T22:23:48.575Z,15.50
2018-08-18T22:26:50.952Z,15.51
2018-08-18T22:29:53.278Z,15.50
2018-08-18T22:32:55.670Z,15.51
2018-08-18T22:35:58.081Z,15.45
2018-08-18T22:39:00.764Z,15.38
2018-08-18T22:42:03.136Z,15.34
2018-08-18T22:45:16.776Z,15.29
2018-08-18T22:48:19.121Z,15.29
2018-08-18T22:51:21.501Z,15.25
2018-08-18T22:54:23.906Z,15.16
2018-08-18T22:57:26.165Z,15.09
2018-08-18T23:00:28.589Z,15.04
2018-08-18T23:03:32.519Z,15.00
2018-08-18T23:06:35.878Z,14.96
2018-08-18T23:09:38.153Z,14.89
2018-08-18T23:12:40.727Z,14.70
2018-08-18T23:15:47.612Z,14.61
2018-08-18T23:18:49.926Z,14.55
2018-08-18T23:21:52.124Z,14.55
2018-08-18T23:24:54.399Z,14.52
2018-08-18T23:27:56.863Z,14.50
2018-08-18T23:30:59.152Z,14.47
2018-08-18T23:34:01.574Z,14.41
2018-08-18T23:37:04.551Z,14.40
2018-08-18T23:40:06.966Z,14.37
2018-08-18T23:43:09.318Z,14.22
2018-08-18T23:46:11.706Z,14.06
2018-08-18T23:49:14.131Z,13.98
2018-08-18T23:52:16.589Z,13.95
2018-08-18T23:55:18.948Z,13.95
2018-08-18T23:58:21.732Z,13.95
